createdAt,value
2023-02-22T00:00:47.436Z,4.80
2023-02-22T00:03:25.070Z,4.80
2023-02-22T00:05:58.244Z,4.80
2023-02-22T00:08:30.310Z,4.80
2023-02-22T00:10:58.269Z,4.90
2023-02-22T00:13:29.254Z,4.90
2023-02-22T00:15:57.953Z,4.90
2023-02-22T00:18:27.839Z,4.70
2023-02-22T00:20:59.887Z,4.50
2023-02-22T00:23:29.872Z,4.40
2023-02-22T00:25:59.396Z,4.30
2023-02-22T00:28:27.386Z,4.20
2023-02-22T00:30:55.647Z,4.30
2023-02-22T00:33:24.015Z,4.30
2023-02-22T00:35:51.785Z,4.10
2023-02-22T00:38:20.953Z,4.00
2023-02-22T00:40:48.719Z,4.00
2023-02-22T00:43:17.003Z,3.90
2023-02-22T00:45:44.854Z,3.90
2023-02-22T00:48:13.189Z,3.90
2023-02-22T00:50:41.044Z,4.00
2023-02-22T00:53:10.216Z,3.90
2023-02-22T00:55:41.385Z,3.90
2023-02-22T00:58:09.600Z,3.80
2023-02-22T01:00:39.066Z,3.80
2023-02-22T01:03:08.185Z,3.80
2023-02-22T01:05:38.183Z,3.70
2023-02-22T01:08:07.469Z,3.70
2023-02-22T01:10:36.407Z,3.70
2023-02-22T01:13:08.543Z,3.50
2023-02-22T01:15:37.898Z,3.50
2023-02-22T01:18:06.659Z,3.40
2023-02-22T01:20:34.595Z,3.70
2023-02-22T01:23:06.398Z,3.70
2023-02-22T01:25:35.281Z,3.70
2023-02-22T01:28:06.559Z,3.80
2023-02-22T01:30:36.229Z,3.70
2023-02-22T01:33:05.997Z,3.60
2023-02-22T01:35:35.269Z,3.60
2023-02-22T01:38:03.264Z,3.80
2023-02-22T01:40:32.935Z,3.90
2023-02-22T01:43:03.006Z,3.80
2023-02-22T01:45:58.145Z,3.90
2023-02-22T01:48:33.299Z,3.90
2023-02-22T01:51:03.840Z,3.80
2023-02-22T01:53:35.892Z,3.90
2023-02-22T01:56:04.972Z,4.00
2023-02-22T01:58:36.198Z,4.10
2023-02-22T02:01:07.304Z,4.00
2023-02-22T02:03:38.457Z,4.00
2023-02-22T02:06:11.832Z,3.90
2023-02-22T02:08:49.755Z,4.00
2023-02-22T02:11:20.735Z,4.10
2023-02-22T02:13:50.749Z,4.10
2023-02-22T02:16:21.795Z,4.10
2023-02-22T02:18:50.201Z,4.10
2023-02-22T02:21:49.817Z,4.10
2023-02-22T02:24:52.192Z,3.90
2023-02-22T02:27:23.555Z,3.90
2023-02-22T02:30:36.369Z,3.80
2023-02-22T02:33:11.946Z,3.70
2023-02-22T02:35:49.685Z,3.80
2023-02-22T02:38:30.962Z,3.80
2023-02-22T02:41:06.446Z,3.90
2023-02-22T02:43:39.858Z,4.00
2023-02-22T02:46:12.055Z,3.90
2023-02-22T02:48:44.387Z,3.90
2023-02-22T02:51:14.577Z,3.80
2023-02-22T02:53:45.672Z,3.80
2023-02-22T02:56:13.510Z,3.90
2023-02-22T02:58:48.999Z,3.70
2023-02-22T03:01:24.654Z,3.70
2023-02-22T03:04:06.818Z,3.70
2023-02-22T03:07:05.886Z,3.60
2023-02-22T03:09:42.920Z,3.70
2023-02-22T03:12:22.767Z,3.50
2023-02-22T03:14:58.900Z,3.70
2023-02-22T03:17:36.677Z,3.50
2023-02-22T03:20:12.067Z,3.40
2023-02-22T03:22:48.114Z,3.40
2023-02-22T03:25:20.927Z,3.40
2023-02-22T03:27:53.232Z,3.30
2023-02-22T03:30:26.279Z,3.40
2023-02-22T03:33:00.895Z,3.40
2023-02-22T03:35:36.268Z,3.40
2023-02-22T03:38:08.509Z,3.40
2023-02-22T03:40:43.416Z,3.50
2023-02-22T03:43:15.724Z,3.40
2023-02-22T03:45:45.783Z,3.40
2023-02-22T03:48:23.762Z,3.30
2023-02-22T03:50:53.638Z,3.20
2023-02-22T03:53:23.361Z,3.10
2023-02-22T03:55:53.461Z,3.00
2023-02-22T03:58:23.850Z,3.00
2023-02-22T04:00:53.132Z,2.90
2023-02-22T04:03:21.626Z,2.90
2023-02-22T04:05:49.494Z,2.90
2023-02-22T04:08:18.695Z,2.90
2023-02-22T04:10:46.709Z,2.80
2023-02-22T04:13:14.676Z,2.80
2023-02-22T04:15:42.683Z,2.80
2023-02-22T04:18:10.477Z,2.80
2023-02-22T04:20:38.278Z,2.70
2023-02-22T04:23:06.321Z,2.90
2023-02-22T04:25:35.430Z,2.90
2023-02-22T04:28:03.250Z,2.90
2023-02-22T04:30:31.145Z,2.80
2023-02-22T04:32:58.916Z,2.70
2023-02-22T04:35:26.710Z,2.70
2023-02-22T04:37:54.484Z,2.60
2023-02-22T04:40:22.567Z,2.70
2023-02-22T04:42:51.689Z,2.80
2023-02-22T04:45:19.554Z,2.80
2023-02-22T04:47:47.300Z,2.80
2023-02-22T04:50:15.759Z,2.80
2023-02-22T04:52:43.510Z,2.70
2023-02-22T04:55:11.451Z,2.80
2023-02-22T04:57:39.205Z,2.90
2023-02-22T05:00:10.492Z,2.90
2023-02-22T05:02:39.987Z,3.10
2023-02-22T05:05:08.542Z,2.90
2023-02-22T05:07:36.338Z,2.80
2023-02-22T05:10:04.552Z,2.80
2023-02-22T05:12:32.268Z,2.70
2023-02-22T05:15:00.060Z,2.70
2023-02-22T05:17:29.159Z,2.70
2023-02-22T05:19:56.924Z,2.80
2023-02-22T05:22:25.016Z,3.00
2023-02-22T05:24:53.215Z,3.00
2023-02-22T05:27:21.787Z,3.00
2023-02-22T05:29:49.758Z,3.10
2023-02-22T05:32:17.535Z,3.10
2023-02-22T05:34:46.698Z,3.30
2023-02-22T05:37:14.441Z,3.20
2023-02-22T05:39:42.220Z,3.10
2023-02-22T05:42:09.974Z,3.00
2023-02-22T05:44:37.773Z,2.90
2023-02-22T05:47:05.637Z,2.80
2023-02-22T05:49:33.487Z,2.60
2023-02-22T05:52:02.587Z,2.50
2023-02-22T05:54:30.369Z,2.40
2023-02-22T05:56:58.133Z,2.40
2023-02-22T05:59:25.912Z,2.40
2023-02-22T06:01:53.687Z,2.40
2023-02-22T06:04:21.457Z,2.40
2023-02-22T06:06:49.235Z,2.50
2023-02-22T06:09:18.313Z,2.50
2023-02-22T06:11:46.158Z,2.50
2023-02-22T06:14:13.916Z,2.50
2023-02-22T06:16:41.712Z,2.50
2023-02-22T06:19:09.489Z,2.70
2023-02-22T06:21:37.272Z,2.70
2023-02-22T06:24:05.370Z,2.60
2023-02-22T06:26:34.500Z,2.60
2023-02-22T06:29:02.331Z,2.60
2023-02-22T06:31:31.704Z,2.60
2023-02-22T06:33:59.453Z,2.60
2023-02-22T06:36:27.246Z,2.50
2023-02-22T06:38:56.916Z,2.50
2023-02-22T06:41:24.754Z,2.50
2023-02-22T06:43:53.868Z,2.50
2023-02-22T06:46:22.069Z,2.50
2023-02-22T06:48:51.721Z,2.60
2023-02-22T06:51:19.585Z,2.60
2023-02-22T06:53:47.316Z,2.60
2023-02-22T06:56:15.113Z,2.70
2023-02-22T06:58:42.900Z,2.70
2023-02-22T07:01:12.166Z,2.90
2023-02-22T07:03:40.162Z,2.90
2023-02-22T07:06:08.889Z,3.10
2023-02-22T07:08:36.689Z,3.30
2023-02-22T07:11:04.730Z,3.40
2023-02-22T07:13:32.514Z,3.50
2023-02-22T07:16:00.342Z,3.60
2023-02-22T07:18:30.940Z,3.80
2023-02-22T07:20:59.512Z,4.00
2023-02-22T07:23:27.922Z,4.10
2023-02-22T07:25:55.703Z,4.20
2023-02-22T07:28:23.480Z,4.40
2023-02-22T07:30:51.305Z,4.40
2023-02-22T07:33:19.058Z,4.50
2023-02-22T07:35:49.839Z,4.60
2023-02-22T07:38:20.490Z,4.70
2023-02-22T07:40:48.373Z,4.80
2023-02-22T07:43:19.152Z,5.00
2023-02-22T07:45:47.868Z,5.20
2023-02-22T07:48:17.584Z,5.30
2023-02-22T07:50:45.685Z,5.40
2023-02-22T07:53:16.844Z,5.50
2023-02-22T07:55:45.226Z,5.70
2023-02-22T07:58:15.952Z,5.80
2023-02-22T08:00:44.951Z,6.10
2023-02-22T08:03:14.404Z,6.30
2023-02-22T08:05:43.868Z,6.60
2023-02-22T08:08:11.939Z,6.80
2023-02-22T08:10:41.080Z,7.00
2023-02-22T08:13:09.379Z,7.00
2023-02-22T08:15:39.060Z,7.10
2023-02-22T08:18:10.016Z,7.20
2023-02-22T08:20:38.974Z,7.30
2023-02-22T08:23:07.846Z,7.40
2023-02-22T08:25:35.799Z,7.50
2023-02-22T08:28:07.947Z,7.60
2023-02-22T08:30:39.723Z,7.80
2023-02-22T08:33:08.180Z,7.90
2023-02-22T08:35:36.031Z,8.00
2023-02-22T08:38:06.324Z,8.20
2023-02-22T08:40:36.099Z,8.40
2023-02-22T08:43:06.550Z,8.70
2023-02-22T08:45:34.492Z,8.90
2023-02-22T08:48:02.290Z,8.90
2023-02-22T08:50:33.448Z,8.90
2023-02-22T08:53:03.723Z,9.10
2023-02-22T08:55:34.522Z,9.20
2023-02-22T08:58:03.770Z,9.30
2023-02-22T09:00:34.466Z,9.50
2023-02-22T09:03:03.004Z,9.80
2023-02-22T09:05:31.579Z,10.10
2023-02-22T09:08:00.174Z,10.50
2023-02-22T09:10:30.407Z,10.70
2023-02-22T09:13:00.802Z,10.80
2023-02-22T09:15:29.348Z,10.90
2023-02-22T09:17:58.558Z,11.10
2023-02-22T09:20:26.715Z,11.30
2023-02-22T09:22:55.108Z,11.40
2023-02-22T09:25:23.813Z,11.60
2023-02-22T09:27:53.293Z,11.90
2023-02-22T09:30:24.788Z,12.10
2023-02-22T09:32:54.488Z,12.60
2023-02-22T09:35:27.051Z,13.20
2023-02-22T09:37:56.367Z,13.70
2023-02-22T09:40:25.898Z,14.20
2023-02-22T09:43:04.848Z,14.80
2023-02-22T09:45:38.482Z,15.40
2023-02-22T09:48:21.299Z,15.70
2023-02-22T09:50:54.743Z,16.00
2023-02-22T09:53:29.784Z,16.60
2023-02-22T09:56:01.590Z,17.10
2023-02-22T09:58:34.312Z,17.00
2023-02-22T10:01:17.234Z,16.90
2023-02-22T10:03:51.645Z,17.00
2023-02-22T10:06:24.192Z,17.30
2023-02-22T10:08:56.354Z,17.40
2023-02-22T10:11:38.209Z,17.90
2023-02-22T10:14:21.817Z,18.10
2023-02-22T10:16:55.425Z,18.40
2023-02-22T10:19:32.900Z,18.00
2023-02-22T10:22:26.794Z,17.90
2023-02-22T10:24:59.808Z,17.80
2023-02-22T10:27:33.140Z,18.00
2023-02-22T10:30:22.104Z,17.80
2023-02-22T10:32:58.448Z,18.10
2023-02-22T10:35:28.504Z,18.40
2023-02-22T10:38:00.792Z,18.70
2023-02-22T10:40:32.985Z,18.70
2023-02-22T10:43:03.828Z,18.20
2023-02-22T10:45:33.411Z,18.00
2023-02-22T10:48:08.462Z,17.60
2023-02-22T10:50:40.300Z,17.60
2023-02-22T10:53:10.966Z,17.50
2023-02-22T10:56:12.676Z,17.90
2023-02-22T10:58:50.461Z,18.30
2023-02-22T11:01:24.678Z,18.40
2023-02-22T11:04:06.153Z,18.50
2023-02-22T11:06:35.766Z,18.70
2023-02-22T11:09:13.079Z,18.70
2023-02-22T11:11:44.089Z,18.70
2023-02-22T11:14:12.795Z,18.40
2023-02-22T11:16:44.050Z,18.10
2023-02-22T11:19:20.871Z,18.00
2023-02-22T11:21:51.523Z,17.70
2023-02-22T11:24:20.839Z,17.40
2023-02-22T11:26:52.579Z,17.30
2023-02-22T11:29:22.939Z,17.20
2023-02-22T11:31:51.548Z,17.20
2023-02-22T11:34:33.378Z,17.00
2023-02-22T11:37:17.852Z,16.90
2023-02-22T11:39:46.276Z,16.80
2023-02-22T11:42:26.002Z,16.70
2023-02-22T11:45:09.616Z,16.50
2023-02-22T11:47:47.181Z,16.60
2023-02-22T11:50:27.783Z,16.80
2023-02-22T11:53:05.794Z,16.40
2023-02-22T11:55:43.291Z,16.40
2023-02-22T11:58:34.524Z,16.50
2023-02-22T12:01:10.090Z,16.20
2023-02-22T12:04:07.768Z,15.80
2023-02-22T12:06:46.437Z,15.70
2023-02-22T12:09:24.047Z,15.60
2023-02-22T12:12:03.568Z,15.60
2023-02-22T12:14:41.963Z,15.70
2023-02-22T12:19:51.448Z,15.30
2023-02-22T12:22:23.995Z,15.40
2023-02-22T12:25:09.039Z,15.40
2023-02-22T12:27:43.265Z,15.30
2023-02-22T12:30:17.332Z,15.40
2023-02-22T12:32:49.564Z,15.50
2023-02-22T12:35:22.578Z,15.30
2023-02-22T12:37:57.152Z,15.30
2023-02-22T12:40:31.764Z,15.20
2023-02-22T12:43:05.344Z,15.10
2023-02-22T12:45:39.817Z,15.00
2023-02-22T12:48:22.911Z,15.00
2023-02-22T12:50:56.132Z,15.10
2023-02-22T12:53:29.457Z,15.00
2023-02-22T12:56:03.750Z,14.90
2023-02-22T12:58:36.654Z,14.90
2023-02-22T13:01:13.327Z,15.00
2023-02-22T13:03:43.962Z,14.90
2023-02-22T13:06:25.402Z,14.80
2023-02-22T13:09:09.445Z,14.90
2023-02-22T13:11:44.590Z,14.90
2023-02-22T13:14:32.894Z,14.80
2023-02-22T13:17:06.980Z,14.80
2023-02-22T13:19:42.654Z,14.80
2023-02-22T13:22:16.675Z,14.80
2023-02-22T13:24:56.579Z,14.90
2023-02-22T13:27:31.264Z,14.90
2023-02-22T13:30:01.614Z,14.80
2023-02-22T13:32:43.622Z,14.80
2023-02-22T13:35:29.530Z,14.70
2023-02-22T13:38:17.062Z,14.60
2023-02-22T13:41:01.968Z,14.50
2023-02-22T13:43:50.511Z,14.60
2023-02-22T13:46:49.868Z,14.50
2023-02-22T13:49:39.701Z,14.50
2023-02-22T13:52:09.646Z,14.40
2023-02-22T13:54:44.916Z,14.40
2023-02-22T13:57:21.158Z,14.30
2023-02-22T13:59:49.164Z,14.30
2023-02-22T14:02:54.814Z,14.30
2023-02-22T14:05:49.690Z,14.20
2023-02-22T14:08:41.986Z,14.20
2023-02-22T14:11:48.667Z,14.30
2023-02-22T14:14:18.351Z,14.20
2023-02-22T14:17:06.370Z,14.20
2023-02-22T14:19:34.183Z,14.20
2023-02-22T14:22:05.814Z,14.10
2023-02-22T14:24:43.841Z,14.10
2023-02-22T14:27:12.995Z,14.10
2023-02-22T14:29:52.148Z,14.00
2023-02-22T14:32:20.938Z,14.10
2023-02-22T14:34:53.900Z,14.10
2023-02-22T14:37:26.837Z,14.10
2023-02-22T14:40:02.106Z,14.10
2023-02-22T14:42:34.401Z,14.10
2023-02-22T14:45:11.942Z,14.00
2023-02-22T14:47:49.420Z,14.00
2023-02-22T14:50:23.108Z,14.00
2023-02-22T14:53:02.479Z,13.90
2023-02-22T14:55:33.996Z,13.90
2023-02-22T14:58:08.524Z,14.00
2023-02-22T15:00:41.991Z,13.90
2023-02-22T15:03:20.325Z,13.80
2023-02-22T15:05:49.666Z,13.80
2023-02-22T15:08:27.971Z,13.80
2023-02-22T15:10:55.977Z,13.70
2023-02-22T15:13:26.126Z,13.70
2023-02-22T15:16:00.489Z,13.70
2023-02-22T15:18:33.548Z,13.70
2023-02-22T15:21:07.111Z,13.70
2023-02-22T15:23:44.043Z,13.70
2023-02-22T15:26:19.155Z,13.70
2023-02-22T15:28:48.282Z,13.50
2023-02-22T15:31:18.990Z,13.50
2023-02-22T15:33:47.041Z,13.60
2023-02-22T15:36:17.525Z,13.40
2023-02-22T15:38:51.173Z,13.30
2023-02-22T15:41:28.182Z,13.30
2023-02-22T15:44:17.712Z,13.30
2023-02-22T15:46:50.676Z,13.20
2023-02-22T15:49:24.239Z,13.20
2023-02-22T15:52:04.925Z,13.20
2023-02-22T15:54:44.441Z,13.20
2023-02-22T15:57:16.691Z,13.20
2023-02-22T15:59:49.631Z,13.00
2023-02-22T16:02:38.684Z,13.00
2023-02-22T16:05:09.723Z,13.00
2023-02-22T16:07:45.206Z,12.90
2023-02-22T16:10:27.544Z,12.90
2023-02-22T16:13:14.376Z,12.90
2023-02-22T16:15:57.050Z,12.70
2023-02-22T16:18:30.158Z,12.70
2023-02-22T16:21:03.670Z,12.70
2023-02-22T16:23:33.490Z,12.60
2023-02-22T16:26:28.223Z,12.70
2023-02-22T16:28:58.029Z,12.70
2023-02-22T16:31:27.916Z,12.60
2023-02-22T16:33:56.547Z,12.60
2023-02-22T16:36:38.004Z,12.50
2023-02-22T16:39:07.285Z,12.50
2023-02-22T16:41:36.468Z,12.50
2023-02-22T16:44:07.625Z,12.50
2023-02-22T16:46:36.067Z,12.50
2023-02-22T16:49:04.947Z,12.50
2023-02-22T16:51:39.678Z,12.50
2023-02-22T16:54:10.910Z,12.40
2023-02-22T16:56:41.326Z,12.40
2023-02-22T16:59:12.152Z,12.40
2023-02-22T17:01:40.028Z,12.30
2023-02-22T17:04:15.400Z,12.30
2023-02-22T17:06:43.374Z,12.30
2023-02-22T17:09:11.260Z,12.20
2023-02-22T17:11:40.738Z,12.20
2023-02-22T17:14:08.532Z,12.30
2023-02-22T17:16:36.324Z,12.30
2023-02-22T17:19:05.030Z,12.30
2023-02-22T17:21:32.833Z,12.20
2023-02-22T17:24:00.626Z,12.10
2023-02-22T17:26:28.550Z,12.10
2023-02-22T17:28:57.689Z,12.00
2023-02-22T17:31:31.969Z,12.10
2023-02-22T17:34:04.114Z,11.90
2023-02-22T17:36:32.841Z,11.90
2023-02-22T17:39:01.000Z,11.90
2023-02-22T17:41:29.022Z,11.90
2023-02-22T17:43:58.911Z,11.90
2023-02-22T17:46:26.937Z,11.90
2023-02-22T17:48:54.949Z,12.00
2023-02-22T17:51:24.286Z,11.90
2023-02-22T17:53:52.299Z,11.90
2023-02-22T17:56:20.579Z,11.80
2023-02-22T17:58:53.039Z,11.80
2023-02-22T18:01:26.921Z,11.70
2023-02-22T18:03:55.950Z,11.60
2023-02-22T18:06:28.297Z,11.50
2023-02-22T18:08:57.786Z,11.50
2023-02-22T18:11:27.836Z,11.60
2023-02-22T18:13:56.324Z,11.60
2023-02-22T18:16:26.789Z,11.60
2023-02-22T18:18:55.128Z,11.50
2023-02-22T18:21:23.382Z,11.40
2023-02-22T18:23:51.239Z,11.30
2023-02-22T18:26:20.714Z,11.30
2023-02-22T18:28:51.597Z,11.30
2023-02-22T18:31:21.400Z,11.40
2023-02-22T18:33:53.505Z,11.40
2023-02-22T18:36:23.678Z,11.30
2023-02-22T18:38:53.037Z,11.20
2023-02-22T18:41:25.100Z,11.20
2023-02-22T18:43:55.024Z,11.30
2023-02-22T18:46:26.248Z,11.30
2023-02-22T18:48:57.177Z,11.20
2023-02-22T18:51:26.211Z,11.20
2023-02-22T18:53:59.956Z,11.20
2023-02-22T18:56:30.452Z,11.10
2023-02-22T18:58:59.835Z,11.10
2023-02-22T19:01:28.775Z,11.10
2023-02-22T19:03:58.121Z,11.10
2023-02-22T19:06:25.957Z,11.10
2023-02-22T19:08:53.924Z,11.10
2023-02-22T19:11:23.824Z,11.00
2023-02-22T19:13:53.882Z,11.00
2023-02-22T19:16:22.979Z,10.90
2023-02-22T19:18:52.598Z,10.90
2023-02-22T19:21:22.244Z,10.80
2023-02-22T19:23:50.278Z,10.80
2023-02-22T19:26:20.040Z,10.80
2023-02-22T19:28:49.129Z,10.80
2023-02-22T19:31:19.556Z,10.80
2023-02-22T19:33:51.132Z,10.70
2023-02-22T19:36:22.889Z,10.80
2023-02-22T19:38:50.745Z,10.80
2023-02-22T19:41:21.691Z,10.80
2023-02-22T19:43:50.752Z,10.80
2023-02-22T19:46:21.134Z,10.90
2023-02-22T19:48:49.866Z,10.80
2023-02-22T19:51:19.821Z,10.80
2023-02-22T19:53:49.195Z,10.80
2023-02-22T19:56:18.820Z,10.70
2023-02-22T19:58:48.321Z,10.60
2023-02-22T20:01:22.781Z,10.60
2023-02-22T20:03:54.210Z,10.50
2023-02-22T20:06:22.907Z,10.50
2023-02-22T20:08:52.085Z,10.50
2023-02-22T20:11:20.460Z,10.50
2023-02-22T20:13:48.735Z,10.50
2023-02-22T20:16:17.289Z,10.50
2023-02-22T20:18:46.385Z,10.50
2023-02-22T20:21:19.930Z,10.50
2023-02-22T20:23:47.923Z,10.30
2023-02-22T20:26:19.795Z,10.30
2023-02-22T20:28:49.465Z,10.40
2023-02-22T20:31:18.300Z,10.30
2023-02-22T20:33:48.897Z,10.40
2023-02-22T20:36:18.556Z,10.40
2023-02-22T20:38:46.915Z,10.40
2023-02-22T20:41:20.616Z,10.50
2023-02-22T20:43:51.072Z,10.40
2023-02-22T20:46:19.214Z,10.40
2023-02-22T20:48:47.113Z,10.30
2023-02-22T20:51:16.449Z,10.30
2023-02-22T20:53:44.958Z,10.20
2023-02-22T20:56:14.482Z,10.20
2023-02-22T20:58:44.147Z,10.20
2023-02-22T21:01:16.898Z,10.10
2023-02-22T21:03:45.176Z,10.10
2023-02-22T21:06:16.475Z,10.10
2023-02-22T21:08:45.652Z,10.20
2023-02-22T21:11:14.746Z,10.10
2023-02-22T21:13:44.182Z,10.10
2023-02-22T21:16:17.997Z,10.20
2023-02-22T21:18:45.814Z,10.30
2023-02-22T21:21:13.873Z,10.20
2023-02-22T21:23:42.269Z,10.20
2023-02-22T21:26:16.694Z,10.10
2023-02-22T21:28:51.221Z,10.10
2023-02-22T21:31:20.847Z,10.20
2023-02-22T21:33:50.458Z,10.20
2023-02-22T21:36:18.920Z,10.20
2023-02-22T21:38:51.039Z,10.30
2023-02-22T21:41:19.068Z,10.40
2023-02-22T21:43:51.819Z,10.30
2023-02-22T21:46:19.813Z,10.20
2023-02-22T21:48:49.223Z,10.40
2023-02-22T21:51:19.156Z,10.30
2023-02-22T21:53:47.926Z,10.30
2023-02-22T21:56:18.870Z,10.30
2023-02-22T21:58:46.946Z,10.30
2023-02-22T22:01:17.610Z,10.30
2023-02-22T22:03:46.259Z,10.30
2023-02-22T22:06:15.029Z,10.20
2023-02-22T22:08:46.012Z,10.30
2023-02-22T22:11:17.699Z,10.30
2023-02-22T22:13:45.967Z,10.40
2023-02-22T22:16:16.884Z,10.40
2023-02-22T22:18:48.924Z,10.50
2023-02-22T22:21:19.619Z,10.40
2023-02-22T22:23:48.452Z,10.40
2023-02-22T22:26:18.221Z,10.30
2023-02-22T22:28:47.731Z,10.20
2023-02-22T22:31:19.520Z,10.20
2023-02-22T22:33:47.957Z,10.20
2023-02-22T22:36:17.956Z,10.20
2023-02-22T22:38:47.277Z,10.20
2023-02-22T22:41:18.035Z,10.10
2023-02-22T22:43:46.938Z,10.20
2023-02-22T22:46:18.579Z,10.10
2023-02-22T22:48:47.548Z,10.10
2023-02-22T22:51:18.498Z,10.00
2023-02-22T22:53:48.761Z,10.10
2023-02-22T22:56:19.808Z,10.00
2023-02-22T22:58:50.010Z,10.00
2023-02-22T23:01:20.841Z,10.00
2023-02-22T23:03:54.917Z,10.00
2023-02-22T23:06:25.672Z,10.10
2023-02-22T23:08:59.800Z,10.10
2023-02-22T23:11:29.490Z,10.10
2023-02-22T23:13:57.765Z,10.10
2023-02-22T23:16:26.928Z,10.00
2023-02-22T23:18:54.743Z,10.00
2023-02-22T23:21:24.447Z,9.90
2023-02-22T23:23:55.706Z,10.00
2023-02-22T23:26:26.517Z,10.00
2023-02-22T23:28:56.920Z,10.00
2023-02-22T23:31:29.380Z,10.00
2023-02-22T23:33:58.755Z,10.00
2023-02-22T23:36:27.486Z,10.00
2023-02-22T23:38:55.866Z,10.00
2023-02-22T23:41:25.269Z,10.00
2023-02-22T23:43:53.813Z,10.00
2023-02-22T23:46:21.776Z,10.00
2023-02-22T23:48:52.963Z,10.10
2023-02-22T23:51:25.346Z,10.00
2023-02-22T23:53:55.673Z,10.00
2023-02-22T23:56:26.464Z,10.10
2023-02-22T23:58:57.251Z,10.10
